Time;durP1;ratioP1;P1;durP2;ratioP2;P2;SDS_P1;SDS_P2;PMS_P1;PMS_P2;Temp;Humidity;BMP_temperature;BMP_pressure;BME280_temperature;BME280_humidity;BME280_pressure;Samples;Min_cycle;Max_cycle;Signal;HPM_P1;HPM_P2
2023/05/21 00:00:15;;;;;;;;;;;;;;;;;;5046579;28;19921;-55
2023/05/21 00:02:41;;;;;;;;;;;;;;;;;;5045119;28;19990;-54
2023/05/21 00:05:12;;;;;;;;;;;;;;;;;;5046531;28;19947;-55
2023/05/21 00:07:38;;;;;;;;;;;;;;;;;;5044062;28;19915;-55
2023/05/21 00:10:04;;;;;;;;;;;;;;;;;;5044173;28;19982;-55
2023/05/21 00:12:31;;;;;;;;;;;;;;;;;;5043287;28;19974;-55
2023/05/21 00:14:57;;;;;;;;;;;;;;;;;;5046752;28;19915;-55
2023/05/21 00:17:24;;;;;;;;;;;;;;;;;;5040201;28;19916;-55
2023/05/21 00:19:50;;;;;;;;;;;;;;;;;;5045723;28;20035;-55
2023/05/21 00:22:16;;;;;;;;;;;;;;;;;;5043704;28;19983;-55
2023/05/21 00:24:45;;;;;;;;;;;;;;;;;;5046352;28;19908;-55
2023/05/21 00:27:11;;;;;;;;;;;;;;;;;;5043981;28;20012;-55
2023/05/21 00:29:37;;;;;;;;;;;;;;;;;;5045076;28;19917;-55
2023/05/21 00:32:03;;;;;;;;;;;;;;;;;;5042983;28;19913;-55
2023/05/21 00:34:29;;;;;;;;;;;;;;;;;;5041867;28;19912;-55
2023/05/21 00:36:56;;;;;;;;;;;;;;;;;;5043129;28;20045;-55
2023/05/21 00:39:22;;;;;;;;;;;;;;;;;;5044032;28;19975;-55
2023/05/21 00:41:48;;;;;;;;;;;;;;;;;;5044707;28;19998;-55
2023/05/21 00:44:15;;;;;;;;;;;;;;;;;;5046226;28;19919;-55
2023/05/21 00:46:43;;;;;;;;;;;;;;;;;;5025683;28;20760;-55
2023/05/21 00:49:09;;;;;;;;;;;;;;;;;;5049059;28;19962;-55
2023/05/21 00:51:35;;;;;;;;;;;;;;;;;;5048964;28;19940;-55
2023/05/21 00:54:01;;;;;;;;;;;;;;;;;;5050054;28;20418;-55
2023/05/21 00:56:27;;;;;;;;;;;;;;;;;;5048273;28;20332;-55
2023/05/21 00:58:53;;;;;;;;;;;;;;;;;;5050022;28;19967;-55
2023/05/21 01:01:19;;;;;;;;;;;;;;;;;;5049828;28;19955;-55
2023/05/21 01:03:47;;;;;;;;;;;;;;;;;;5048975;28;19952;-55
2023/05/21 01:06:13;;;;;;;;;;;;;;;;;;5045244;28;20330;-54
2023/05/21 01:08:39;;;;;;;;;;;;;;;;;;5048517;28;19958;-55
2023/05/21 01:11:05;;;;;;;;;;;;;;;;;;5046800;28;20429;-55
2023/05/21 01:13:31;;;;;;;;;;;;;;;;;;5047901;28;19977;-60
2023/05/21 01:15:58;;;;;;;;;;;;;;;;;;5049859;28;19909;-55
2023/05/21 01:18:24;;;;;;;;;;;;;;;;;;5047584;28;20379;-55
2023/05/21 01:20:51;;;;;;;;;;;;;;;;;;5047012;28;19947;-54
2023/05/21 01:23:17;;;;;;;;;;;;;;;;;;5047222;28;20295;-54
2023/05/21 01:25:43;;;;;;;;;;;;;;;;;;5047848;28;19917;-55
2023/05/21 01:28:09;;;;;;;;;;;;;;;;;;5043984;28;20359;-55
2023/05/21 01:30:35;;;;;;;;;;;;;;;;;;5048364;28;20039;-55
2023/05/21 01:33:01;;;;;;;;;;;;;;;;;;5046570;28;19956;-55
2023/05/21 01:35:26;;;;;;;;;;;;;;;;;;5046557;28;20345;-54
2023/05/21 01:37:54;;;;;;;;;;;;;;;;;;5046235;28;20499;-54
2023/05/21 01:40:20;;;;;;;;;;;;;;;;;;5047930;28;20003;-54
2023/05/21 01:42:45;;;;;;;;;;;;;;;;;;5045368;28;19993;-55
2023/05/21 01:45:11;;;;;;;;;;;;;;;;;;5043355;28;20354;-54
2023/05/21 01:47:37;;;;;;;;;;;;;;;;;;5044259;28;20288;-55
2023/05/21 01:50:03;;;;;;;;;;;;;;;;;;5043399;28;19968;-54
2023/05/21 01:52:29;;;;;;;;;;;;;;;;;;5043654;28;19966;-54
2023/05/21 01:54:55;;;;;;;;;;;;;;;;;;5048197;28;19940;-55
2023/05/21 01:57:21;;;;;;;;;;;;;;;;;;5048265;28;19912;-54
2023/05/21 01:59:47;;;;;;;;;;;;;;;;;;5047025;28;19947;-55
2023/05/21 02:02:13;;;;;;;;;;;;;;;;;;5042316;28;19916;-54
2023/05/21 02:04:43;;;;;;;;;;;;;;;;;;5048997;28;20440;-55
2023/05/21 02:07:09;;;;;;;;;;;;;;;;;;5047947;28;19932;-54
2023/05/21 02:09:35;;;;;;;;;;;;;;;;;;5048392;28;20353;-54
2023/05/21 02:12:01;;;;;;;;;;;;;;;;;;5046030;28;20525;-55
2023/05/21 02:14:28;;;;;;;;;;;;;;;;;;5048478;28;19970;-55
2023/05/21 02:16:55;;;;;;;;;;;;;;;;;;5027659;28;19909;-54
2023/05/21 02:19:21;;;;;;;;;;;;;;;;;;5048940;28;20103;-55
2023/05/21 02:21:47;;;;;;;;;;;;;;;;;;5047032;28;19987;-55
2023/05/21 02:24:13;;;;;;;;;;;;;;;;;;5029649;28;20399;-55
2023/05/21 02:26:39;;;;;;;;;;;;;;;;;;5047418;28;20360;-55
2023/05/21 02:29:05;;;;;;;;;;;;;;;;;;5047363;28;19912;-55
2023/05/21 02:31:31;;;;;;;;;;;;;;;;;;5046879;28;20002;-54
2023/05/21 02:33:57;;;;;;;;;;;;;;;;;;5046970;28;19967;-55
2023/05/21 02:36:24;;;;;;;;;;;;;;;;;;5046547;28;19952;-55
2023/05/21 02:38:50;;;;;;;;;;;;;;;;;;5047940;28;19978;-54
2023/05/21 02:41:16;;;;;;;;;;;;;;;;;;5046821;28;20395;-55
2023/05/21 02:43:42;;;;;;;;;;;;;;;;;;5043778;28;19948;-54
2023/05/21 02:46:08;;;;;;;;;;;;;;;;;;5047349;28;19947;-55
2023/05/21 02:48:34;;;;;;;;;;;;;;;;;;5045911;28;19974;-55
2023/05/21 02:51:00;;;;;;;;;;;;;;;;;;5045382;28;19936;-55
2023/05/21 02:53:26;;;;;;;;;;;;;;;;;;5044238;28;20350;-55
2023/05/21 02:55:52;;;;;;;;;;;;;;;;;;5046812;28;20355;-55
2023/05/21 02:58:18;;;;;;;;;;;;;;;;;;5043320;28;19913;-55
2023/05/21 03:00:44;;;;;;;;;;;;;;;;;;5044338;28;20140;-55
2023/05/21 03:03:10;;;;;;;;;;;;;;;;;;5043809;28;19989;-55
2023/05/21 03:05:36;;;;;;;;;;;;;;;;;;5043540;28;19916;-56
2023/05/21 03:08:02;;;;;;;;;;;;;;;;;;5044192;28;19912;-55
2023/05/21 03:10:28;;;;;;;;;;;;;;;;;;5045578;28;19936;-55
2023/05/21 03:12:55;;;;;;;;;;;;;;;;;;5042328;28;19924;-55
2023/05/21 03:15:22;;;;;;;;;;;;;;;;;;5045448;28;19909;-54
2023/05/21 03:17:48;;;;;;;;;;;;;;;;;;5045999;28;19966;-55
2023/05/21 03:20:17;;;;;;;;;;;;;;;;;;5043941;28;20017;-55
2023/05/21 03:22:43;;;;;;;;;;;;;;;;;;5042566;28;19943;-55
2023/05/21 03:25:09;;;;;;;;;;;;;;;;;;5046505;28;19944;-55
2023/05/21 03:27:35;;;;;;;;;;;;;;;;;;5044327;28;19967;-55
2023/05/21 03:30:01;;;;;;;;;;;;;;;;;;5026287;28;19967;-55
2023/05/21 03:32:27;;;;;;;;;;;;;;;;;;5044868;28;19908;-55
2023/05/21 03:34:53;;;;;;;;;;;;;;;;;;5043366;28;20391;-55
2023/05/21 03:37:19;;;;;;;;;;;;;;;;;;5044787;28;19987;-55
2023/05/21 03:39:46;;;;;;;;;;;;;;;;;;5046280;28;20272;-55
2023/05/21 03:42:12;;;;;;;;;;;;;;;;;;5043115;28;19912;-55
2023/05/21 03:44:38;;;;;;;;;;;;;;;;;;5043944;28;20284;-55
2023/05/21 03:47:05;;;;;;;;;;;;;;;;;;5043647;28;20348;-55
2023/05/21 03:49:31;;;;;;;;;;;;;;;;;;5045358;28;19908;-55
2023/05/21 03:51:57;;;;;;;;;;;;;;;;;;5045803;28;19940;-55
2023/05/21 03:54:23;;;;;;;;;;;;;;;;;;5044847;28;19919;-55
2023/05/21 03:56:49;;;;;;;;;;;;;;;;;;5045181;28;20037;-55
2023/05/21 03:59:15;;;;;;;;;;;;;;;;;;5043765;28;19974;-55
2023/05/21 04:01:41;;;;;;;;;;;;;;;;;;5043646;28;19919;-55
2023/05/21 04:04:07;;;;;;;;;;;;;;;;;;5045826;28;19913;-55
2023/05/21 04:06:33;;;;;;;;;;;;;;;;;;5044696;28;19998;-55
2023/05/21 04:09:00;;;;;;;;;;;;;;;;;;5046417;28;19912;-55
2023/05/21 04:11:26;;;;;;;;;;;;;;;;;;5045389;28;19944;-55
2023/05/21 04:13:52;;;;;;;;;;;;;;;;;;5041972;28;20144;-55
2023/05/21 04:16:18;;;;;;;;;;;;;;;;;;5045830;28;20174;-55
2023/05/21 04:18:44;;;;;;;;;;;;;;;;;;5044893;28;19974;-55
2023/05/21 04:21:11;;;;;;;;;;;;;;;;;;5045659;28;19912;-57
2023/05/21 04:23:37;;;;;;;;;;;;;;;;;;5044475;28;19924;-55
2023/05/21 04:26:03;;;;;;;;;;;;;;;;;;5046213;28;20369;-55
2023/05/21 04:28:29;;;;;;;;;;;;;;;;;;5044344;28;20029;-54
2023/05/21 04:30:56;;;;;;;;;;;;;;;;;;5025754;28;20383;-55
2023/05/21 04:33:23;;;;;;;;;;;;;;;;;;5043743;28;19920;-55
2023/05/21 04:35:49;;;;;;;;;;;;;;;;;;5045457;28;20375;-55
2023/05/21 04:38:18;;;;;;;;;;;;;;;;;;5045766;28;20003;-54
2023/05/21 04:40:44;;;;;;;;;;;;;;;;;;5045015;28;19999;-55
2023/05/21 04:43:10;;;;;;;;;;;;;;;;;;5025722;28;19935;-55
2023/05/21 04:45:36;;;;;;;;;;;;;;;;;;5045501;28;19936;-55
2023/05/21 04:48:03;;;;;;;;;;;;;;;;;;5027315;28;19909;-55
2023/05/21 04:50:29;;;;;;;;;;;;;;;;;;5041544;28;19919;-54
2023/05/21 04:52:55;;;;;;;;;;;;;;;;;;5041562;28;19951;-54
2023/05/21 04:55:21;;;;;;;;;;;;;;;;;;5044562;28;19920;-55
2023/05/21 04:57:47;;;;;;;;;;;;;;;;;;5043476;28;19915;-54
2023/05/21 05:00:15;;;;;;;;;;;;;;;;;;5041241;28;20426;-55
2023/05/21 05:02:41;;;;;;;;;;;;;;;;;;5043953;28;20406;-55
2023/05/21 05:05:07;;;;;;;;;;;;;;;;;;5040630;28;20369;-54
2023/05/21 05:07:33;;;;;;;;;;;;;;;;;;5045107;28;20625;-54
2023/05/21 05:10:00;;;;;;;;;;;;;;;;;;5044055;28;19916;-55
2023/05/21 05:12:26;;;;;;;;;;;;;;;;;;5044261;28;20414;-55
2023/05/21 05:14:52;;;;;;;;;;;;;;;;;;5044028;28;19908;-55
2023/05/21 05:17:18;;;;;;;;;;;;;;;;;;5044679;28;19955;-55
2023/05/21 05:19:44;;;;;;;;;;;;;;;;;;5044305;28;19908;-54
2023/05/21 05:22:11;;;;;;;;;;;;;;;;;;5044403;28;20333;-54
2023/05/21 05:24:37;;;;;;;;;;;;;;;;;;5044909;28;20403;-54
2023/05/21 05:27:03;;;;;;;;;;;;;;;;;;5045017;28;19951;-55
2023/05/21 05:29:29;;;;;;;;;;;;;;;;;;5042990;28;20451;-54
2023/05/21 05:31:55;;;;;;;;;;;;;;;;;;5045693;28;20224;-54
2023/05/21 05:34:21;;;;;;;;;;;;;;;;;;5040318;28;19917;-55
2023/05/21 05:36:48;;;;;;;;;;;;;;;;;;5043042;28;20411;-54
2023/05/21 05:39:14;;;;;;;;;;;;;;;;;;5045378;28;19908;-54
2023/05/21 05:41:40;;;;;;;;;;;;;;;;;;5046218;28;19912;-55
2023/05/21 05:44:06;;;;;;;;;;;;;;;;;;5042152;28;19967;-54
2023/05/21 05:46:32;;;;;;;;;;;;;;;;;;5020595;28;20182;-54
2023/05/21 05:48:58;;;;;;;;;;;;;;;;;;5041544;28;19921;-54
2023/05/21 05:51:24;;;;;;;;;;;;;;;;;;5038208;28;19915;-54
2023/05/21 05:53:51;;;;;;;;;;;;;;;;;;5042635;28;19917;-54
2023/05/21 05:56:17;;;;;;;;;;;;;;;;;;5043871;28;19913;-55
2023/05/21 05:58:43;;;;;;;;;;;;;;;;;;5041753;28;19956;-54
2023/05/21 06:01:09;;;;;;;;;;;;;;;;;;5047501;28;20399;-54
2023/05/21 06:03:35;;;;;;;;;;;;;;;;;;5047640;28;19916;-54
2023/05/21 06:06:01;;;;;;;;;;;;;;;;;;5048080;28;20281;-54
2023/05/21 06:08:27;;;;;;;;;;;;;;;;;;5045229;28;19917;-55
2023/05/21 06:10:53;;;;;;;;;;;;;;;;;;5046743;28;19943;-54
2023/05/21 06:13:19;;;;;;;;;;;;;;;;;;5040285;28;19991;-54
2023/05/21 06:15:45;;;;;;;;;;;;;;;;;;5026935;28;20332;-54
2023/05/21 06:18:12;;;;;;;;;;;;;;;;;;5044011;28;19971;-55
2023/05/21 06:20:38;;;;;;;;;;;;;;;;;;5046787;28;20275;-54
2023/05/21 06:23:06;;;;;;;;;;;;;;;;;;5044579;28;19917;-56
2023/05/21 06:25:32;;;;;;;;;;;;;;;;;;5044530;28;19924;-55
2023/05/21 06:27:58;;;;;;;;;;;;;;;;;;5045357;28;20080;-56
2023/05/21 06:30:24;;;;;;;;;;;;;;;;;;5046089;28;20230;-56
2023/05/21 06:32:51;;;;;;;;;;;;;;;;;;5046377;28;19913;-55
2023/05/21 06:35:17;;;;;;;;;;;;;;;;;;5045610;28;19923;-56
2023/05/21 06:37:43;;;;;;;;;;;;;;;;;;5047545;28;19908;-55
2023/05/21 06:40:10;;;;;;;;;;;;;;;;;;5023249;28;19962;-55
2023/05/21 06:42:36;;;;;;;;;;;;;;;;;;5041162;28;19909;-56
2023/05/21 06:45:02;;;;;;;;;;;;;;;;;;5020514;28;19971;-56
2023/05/21 06:47:29;;;;;;;;;;;;;;;;;;5043815;28;19921;-56
2023/05/21 06:49:55;;;;;;;;;;;;;;;;;;5044974;28;21124;-56
2023/05/21 06:52:22;;;;;;;;;;;;;;;;;;5041938;28;19963;-56
2023/05/21 06:54:48;;;;;;;;;;;;;;;;;;5044141;28;19919;-53
2023/05/21 06:57:14;;;;;;;;;;;;;;;;;;5043236;28;19913;-56
2023/05/21 06:59:40;;;;;;;;;;;;;;;;;;5044397;28;19915;-54
2023/05/21 07:02:07;;;;;;;;;;;;;;;;;;5042812;28;20027;-54
2023/05/21 07:04:34;;;;;;;;;;;;;;;;;;5043171;28;19959;-54
2023/05/21 07:07:00;;;;;;;;;;;;;;;;;;5044199;28;19912;-54
2023/05/21 07:09:26;;;;;;;;;;;;;;;;;;5045295;28;20267;-56
2023/05/21 07:11:52;;;;;;;;;;;;;;;;;;5042688;28;20328;-55
2023/05/21 07:14:18;;;;;;;;;;;;;;;;;;5043761;28;19909;-54
2023/05/21 07:16:44;;;;;;;;;;;;;;;;;;5044144;28;19912;-55
2023/05/21 07:19:10;;;;;;;;;;;;;;;;;;5044800;28;19963;-54
2023/05/21 07:21:36;;;;;;;;;;;;;;;;;;5043345;28;20000;-55
2023/05/21 07:24:02;;;;;;;;;;;;;;;;;;5044437;28;20518;-56
2023/05/21 07:26:28;;;;;;;;;;;;;;;;;;5037790;28;20325;-55
2023/05/21 07:28:54;;;;;;;;;;;;;;;;;;5043356;28;19930;-56
2023/05/21 07:31:20;;;;;;;;;;;;;;;;;;5045617;28;19919;-54
2023/05/21 07:33:47;;;;;;;;;;;;;;;;;;5041620;28;20011;-56
2023/05/21 07:36:13;;;;;;;;;;;;;;;;;;5040293;28;19944;-54
2023/05/21 07:38:39;;;;;;;;;;;;;;;;;;5040960;28;20305;-56
2023/05/21 07:41:05;;;;;;;;;;;;;;;;;;5040154;28;19913;-55
2023/05/21 07:43:31;;;;;;;;;;;;;;;;;;5039779;28;19913;-55
2023/05/21 07:45:57;;;;;;;;;;;;;;;;;;5043961;28;19974;-55
2023/05/21 07:48:23;;;;;;;;;;;;;;;;;;5039034;28;20060;-55
2023/05/21 07:50:51;;;;;;;;;;;;;;;;;;5041755;28;20378;-56
2023/05/21 07:53:17;;;;;;;;;;;;;;;;;;5038148;28;19917;-55
2023/05/21 07:55:46;;;;;;;;;;;;;;;;;;5039764;28;19920;-54
2023/05/21 07:58:12;;;;;;;;;;;;;;;;;;5042044;28;19922;-54
2023/05/21 08:00:38;;;;;;;;;;;;;;;;;;5043492;28;20003;-54
2023/05/21 08:03:04;;;;;;;;;;;;;;;;;;5042656;28;20016;-54
2023/05/21 08:05:30;;;;;;;;;;;;;;;;;;5041748;28;19909;-54
2023/05/21 08:07:56;;;;;;;;;;;;;;;;;;5042399;28;20019;-54
2023/05/21 08:10:22;;;;;;;;;;;;;;;;;;5042893;28;20461;-54
2023/05/21 08:12:49;;;;;;;;;;;;;;;;;;5039386;28;19928;-54
2023/05/21 08:15:16;;;;;;;;;;;;;;;;;;5044889;28;19923;-54
2023/05/21 08:17:42;;;;;;;;;;;;;;;;;;5045648;28;19913;-54
2023/05/21 08:20:08;;;;;;;;;;;;;;;;;;5041997;28;19908;-54
2023/05/21 08:22:34;;;;;;;;;;;;;;;;;;5045238;28;19999;-54
2023/05/21 08:25:00;;;;;;;;;;;;;;;;;;5041700;28;20406;-54
2023/05/21 08:27:26;;;;;;;;;;;;;;;;;;5041279;28;19927;-54
2023/05/21 08:29:52;;;;;;;;;;;;;;;;;;5046056;28;19917;-54
2023/05/21 08:32:18;;;;;;;;;;;;;;;;;;5042747;28;20017;-54
2023/05/21 08:34:45;;;;;;;;;;;;;;;;;;5041305;28;20018;-55
2023/05/21 08:37:11;;;;;;;;;;;;;;;;;;5043046;28;20037;-55
2023/05/21 08:39:37;;;;;;;;;;;;;;;;;;5044201;28;20360;-55
2023/05/21 08:42:03;;;;;;;;;;;;;;;;;;5041962;28;19917;-54
2023/05/21 08:44:30;;;;;;;;;;;;;;;;;;5043137;28;20347;-56
2023/05/21 08:46:56;;;;;;;;;;;;;;;;;;5024730;28;20544;-56
2023/05/21 08:49:22;;;;;;;;;;;;;;;;;;5042483;28;19954;-56
2023/05/21 08:51:49;;;;;;;;;;;;;;;;;;5042671;28;19913;-55
2023/05/21 08:54:15;;;;;;;;;;;;;;;;;;5043141;28;19928;-56
2023/05/21 08:56:44;;;;;;;;;;;;;;;;;;5043674;28;19916;-56
2023/05/21 08:59:10;;;;;;;;;;;;;;;;;;5041920;28;19937;-55
2023/05/21 09:01:37;;;;;;;;;;;;;;;;;;5041752;28;19917;-54
2023/05/21 09:04:03;;;;;;;;;;;;;;;;;;5045069;28;19924;-55
2023/05/21 09:06:32;;;;;;;;;;;;;;;;;;5041684;28;19924;-54
2023/05/21 09:08:58;;;;;;;;;;;;;;;;;;5043645;28;19917;-55
2023/05/21 09:11:24;;;;;;;;;;;;;;;;;;5047759;28;19971;-55
2023/05/21 09:13:50;;;;;;;;;;;;;;;;;;5046655;28;19916;-56
2023/05/21 09:19:01;;;;;;;;;;;;;;;;;;5045217;28;19916;-55
2023/05/21 09:21:27;;;;;;;;;;;;;;;;;;5047572;28;19921;-55
2023/05/21 09:23:53;;;;;;;;;;;;;;;;;;5049366;28;20532;-55
2023/05/21 09:26:20;;;;;;;;;;;;;;;;;;5042716;28;20293;-56
2023/05/21 09:28:46;;;;;;;;;;;;;;;;;;5043862;28;19917;-55
2023/05/21 09:31:12;;;;;;;;;;;;;;;;;;5046149;28;19916;-55
2023/05/21 09:33:38;;;;;;;;;;;;;;;;;;5047469;28;19909;-55
2023/05/21 09:36:06;;;;;;;;;;;;;;;;;;5040411;28;19916;-55
2023/05/21 09:38:32;;;;;;;;;;;;;;;;;;5040906;28;19916;-56
2023/05/21 09:40:58;;;;;;;;;;;;;;;;;;5040518;28;19985;-55
2023/05/21 09:43:25;;;;;;;;;;;;;;;;;;5046350;28;19935;-55
2023/05/21 09:45:51;;;;;;;;;;;;;;;;;;5044599;28;19968;-56
2023/05/21 09:48:17;;;;;;;;;;;;;;;;;;5046923;28;20351;-55
2023/05/21 09:50:43;;;;;;;;;;;;;;;;;;5045768;28;19922;-55
2023/05/21 09:53:09;;;;;;;;;;;;;;;;;;5044435;28;20283;-55
2023/05/21 09:55:35;;;;;;;;;;;;;;;;;;5045636;28;19955;-55
2023/05/21 09:58:03;;;;;;;;;;;;;;;;;;5021526;28;19915;-56
2023/05/21 10:00:29;;;;;;;;;;;;;;;;;;5046528;28;20335;-56
2023/05/21 10:02:55;;;;;;;;;;;;;;;;;;5046894;28;19948;-57
2023/05/21 10:05:22;;;;;;;;;;;;;;;;;;5044711;28;20348;-56
2023/05/21 10:07:49;;;;;;;;;;;;;;;;;;5045741;28;19992;-56
2023/05/21 10:10:15;;;;;;;;;;;;;;;;;;5046341;28;19979;-55
2023/05/21 10:12:41;;;;;;;;;;;;;;;;;;5042167;28;19909;-55
2023/05/21 10:15:08;;;;;;;;;;;;;;;;;;5029579;28;19912;-56
2023/05/21 10:17:34;;;;;;;;;;;;;;;;;;5042113;28;20359;-57
2023/05/21 10:20:00;;;;;;;;;;;;;;;;;;5043544;28;20023;-56
2023/05/21 10:22:26;;;;;;;;;;;;;;;;;;5040149;28;20007;-56
2023/05/21 10:24:52;;;;;;;;;;;;;;;;;;5046072;28;19908;-57
2023/05/21 10:27:18;;;;;;;;;;;;;;;;;;5044996;28;19963;-57
2023/05/21 10:29:45;;;;;;;;;;;;;;;;;;5026382;28;20369;-64
2023/05/21 10:32:11;;;;;;;;;;;;;;;;;;5041534;28;20325;-56
2023/05/21 10:34:37;;;;;;;;;;;;;;;;;;5044135;28;19932;-56
2023/05/21 10:37:03;;;;;;;;;;;;;;;;;;5045241;28;19916;-56
2023/05/21 10:39:30;;;;;;;;;;;;;;;;;;5046624;28;19909;-56
2023/05/21 10:41:56;;;;;;;;;;;;;;;;;;5045962;28;20349;-56
2023/05/21 10:44:23;;;;;;;;;;;;;;;;;;5046075;28;19912;-56
2023/05/21 10:46:48;;;;;;;;;;;;;;;;;;5047081;28;20345;-56
2023/05/21 10:49:15;;;;;;;;;;;;;;;;;;5046098;28;19913;-57
2023/05/21 10:51:41;;;;;;;;;;;;;;;;;;5047165;28;20291;-53
2023/05/21 10:54:07;;;;;;;;;;;;;;;;;;5048481;28;19962;-60
2023/05/21 10:56:33;;;;;;;;;;;;;;;;;;5046005;28;19909;-59
2023/05/21 10:58:59;;;;;;;;;;;;;;;;;;5044884;28;20427;-62
2023/05/21 11:01:25;;;;;;;;;;;;;;;;;;5040998;28;19913;-61
2023/05/21 11:03:51;;;;;;;;;;;;;;;;;;5046289;28;20276;-63
2023/05/21 11:06:18;;;;;;;;;;;;;;;;;;5046014;28;19924;-62
2023/05/21 11:08:45;;;;;;;;;;;;;;;;;;5046408;28;19909;-62
2023/05/21 11:11:11;;;;;;;;;;;;;;;;;;5045867;28;21454;-63
2023/05/21 11:13:38;;;;;;;;;;;;;;;;;;5043006;28;20307;-63
2023/05/21 11:16:05;;;;;;;;;;;;;;;;;;5043147;28;19912;-62
2023/05/21 11:18:32;;;;;;;;;;;;;;;;;;5047157;28;19913;-62
2023/05/21 11:20:58;;;;;;;;;;;;;;;;;;5043585;28;19920;-64
2023/05/21 11:23:24;;;;;;;;;;;;;;;;;;5044579;28;19909;-63
2023/05/21 11:25:51;;;;;;;;;;;;;;;;;;5043195;28;19916;-63
2023/05/21 11:28:17;;;;;;;;;;;;;;;;;;5043615;28;20009;-63
2023/05/21 11:30:43;;;;;;;;;;;;;;;;;;5046180;28;19959;-62
2023/05/21 11:33:10;;;;;;;;;;;;;;;;;;5050048;28;20338;-62
2023/05/21 11:35:36;;;;;;;;;;;;;;;;;;5044770;28;20202;-64
2023/05/21 11:38:02;;;;;;;;;;;;;;;;;;5046936;28;20320;-62
2023/05/21 11:40:29;;;;;;;;;;;;;;;;;;5047812;28;20332;-63
2023/05/21 11:42:56;;;;;;;;;;;;;;;;;;5046306;28;19948;-63
2023/05/21 11:45:22;;;;;;;;;;;;;;;;;;5047893;28;19913;-63
2023/05/21 11:47:48;;;;;;;;;;;;;;;;;;5048629;28;20407;-63
2023/05/21 11:50:14;;;;;;;;;;;;;;;;;;5048185;28;19913;-63
2023/05/21 11:52:41;;;;;;;;;;;;;;;;;;5047393;28;19904;-63
2023/05/21 11:55:07;;;;;;;;;;;;;;;;;;5043954;28;20400;-62
2023/05/21 11:57:33;;;;;;;;;;;;;;;;;;5043894;28;19912;-61
2023/05/21 12:00:00;;;;;;;;;;;;;;;;;;5046676;28;20279;-62
2023/05/21 12:02:27;;;;;;;;;;;;;;;;;;5044454;28;19913;-62
2023/05/21 12:04:53;;;;;;;;;;;;;;;;;;5025544;28;19913;-62
2023/05/21 12:07:19;;;;;;;;;;;;;;;;;;5046520;28;20275;-62
2023/05/21 12:09:45;;;;;;;;;;;;;;;;;;5043157;28;19909;-63
2023/05/21 12:12:14;;;;;;;;;;;;;;;;;;5044940;28;19908;-61
2023/05/21 12:14:40;;;;;;;;;;;;;;;;;;5044285;28;20015;-62
2023/05/21 12:17:06;;;;;;;;;;;;;;;;;;5046724;28;20002;-62
2023/05/21 12:19:33;;;;;;;;;;;;;;;;;;5037638;28;20356;-62
2023/05/21 12:21:59;;;;;;;;;;;;;;;;;;5035382;28;20275;-63
2023/05/21 12:24:25;;;;;;;;;;;;;;;;;;5041501;28;20348;-62
2023/05/21 12:26:53;;;;;;;;;;;;;;;;;;5045188;28;19923;-62
2023/05/21 12:29:22;;;;;;;;;;;;;;;;;;5064182;28;19984;-63
2023/05/21 12:31:48;;;;;;;;;;;;;;;;;;5061450;28;19920;-63
2023/05/21 12:34:17;;;;;;;;;;;;;;;;;;5065352;28;19924;-62
2023/05/21 12:36:50;;;;;;;;;;;;;;;;;;5065668;28;19991;-62
2023/05/21 12:39:16;;;;;;;;;;;;;;;;;;5049595;28;20465;-61
2023/05/21 12:41:43;;;;;;;;;;;;;;;;;;5067300;28;19912;-62
2023/05/21 12:44:09;;;;;;;;;;;;;;;;;;5066376;28;19957;-62
2023/05/21 12:46:35;;;;;;;;;;;;;;;;;;5070463;28;19909;-64
2023/05/21 12:49:02;;;;;;;;;;;;;;;;;;5068600;28;19927;-63
2023/05/21 12:51:28;;;;;;;;;;;;;;;;;;5053184;28;19913;-63
2023/05/21 12:53:54;;;;;;;;;;;;;;;;;;5067801;28;20064;-64
2023/05/21 12:56:21;;;;;;;;;;;;;;;;;;5070548;28;19908;-64
2023/05/21 12:58:47;;;;;;;;;;;;;;;;;;5065405;28;20624;-65
2023/05/21 13:01:13;;;;;;;;;;;;;;;;;;5070527;28;20280;-64
2023/05/21 13:03:39;;;;;;;;;;;;;;;;;;5069546;28;19908;-63
2023/05/21 13:06:05;;;;;;;;;;;;;;;;;;5070681;28;19943;-64
2023/05/21 13:08:33;;;;;;;;;;;;;;;;;;5050410;28;19908;-63
2023/05/21 13:10:59;;;;;;;;;;;;;;;;;;5068881;28;19912;-65
2023/05/21 13:13:25;;;;;;;;;;;;;;;;;;5067672;28;20271;-64
2023/05/21 13:15:51;;;;;;;;;;;;;;;;;;5070659;28;19920;-63
2023/05/21 13:18:19;;;;;;;;;;;;;;;;;;5069787;28;19913;-63
2023/05/21 13:20:46;;;;;;;;;;;;;;;;;;5066586;28;20290;-63
2023/05/21 13:23:12;;;;;;;;;;;;;;;;;;5067214;28;20006;-64
2023/05/21 13:25:38;;;;;;;;;;;;;;;;;;5065129;28;20003;-67
2023/05/21 13:28:04;;;;;;;;;;;;;;;;;;5050503;28;19943;-66
2023/05/21 13:30:32;;;;;;;;;;;;;;;;;;5050422;28;19958;-68
2023/05/21 13:32:58;;;;;;;;;;;;;;;;;;5046678;28;19917;-67
2023/05/21 13:35:24;;;;;;;;;;;;;;;;;;5031322;28;19999;-62
2023/05/21 13:37:50;;;;;;;;;;;;;;;;;;5051022;28;19951;-64
2023/05/21 13:40:16;;;;;;;;;;;;;;;;;;5052361;28;19909;-64
2023/05/21 13:42:42;;;;;;;;;;;;;;;;;;5050489;28;19913;-64
2023/05/21 13:45:09;;;;;;;;;;;;;;;;;;5050877;28;20032;-64
2023/05/21 13:47:35;;;;;;;;;;;;;;;;;;5050916;28;20542;-62
2023/05/21 13:50:01;;;;;;;;;;;;;;;;;;5050294;28;19992;-59
2023/05/21 13:52:27;;;;;;;;;;;;;;;;;;5050755;28;19915;-62
2023/05/21 13:54:53;;;;;;;;;;;;;;;;;;5050018;28;20000;-62
2023/05/21 13:57:19;;;;;;;;;;;;;;;;;;5049387;28;19981;-60
2023/05/21 13:59:45;;;;;;;;;;;;;;;;;;5051521;28;19909;-60
2023/05/21 14:02:12;;;;;;;;;;;;;;;;;;5050554;28;20300;-60
2023/05/21 14:04:38;;;;;;;;;;;;;;;;;;5049637;28;20319;-59
2023/05/21 14:07:04;;;;;;;;;;;;;;;;;;5050491;28;19916;-59
2023/05/21 14:09:30;;;;;;;;;;;;;;;;;;5046331;28;20004;-59
2023/05/21 14:11:57;;;;;;;;;;;;;;;;;;5049685;28;20300;-58
2023/05/21 14:14:23;;;;;;;;;;;;;;;;;;5044688;28;19979;-59
2023/05/21 14:16:50;;;;;;;;;;;;;;;;;;5046625;28;19913;-59
2023/05/21 14:19:16;;;;;;;;;;;;;;;;;;5048821;28;19912;-59
2023/05/21 14:21:42;;;;;;;;;;;;;;;;;;5046701;28;19927;-59
2023/05/21 14:24:08;;;;;;;;;;;;;;;;;;5048214;28;19952;-59
2023/05/21 14:26:35;;;;;;;;;;;;;;;;;;5029678;28;19951;-60
2023/05/21 14:29:01;;;;;;;;;;;;;;;;;;5044318;28;19913;-59
2023/05/21 14:31:27;;;;;;;;;;;;;;;;;;5044252;28;19917;-60
2023/05/21 14:33:54;;;;;;;;;;;;;;;;;;5047112;28;20356;-60
2023/05/21 14:36:20;;;;;;;;;;;;;;;;;;5041338;28;20004;-59
2023/05/21 14:38:46;;;;;;;;;;;;;;;;;;5051046;28;20000;-59
2023/05/21 14:41:12;;;;;;;;;;;;;;;;;;5047590;28;20259;-59
2023/05/21 14:43:38;;;;;;;;;;;;;;;;;;5045027;28;19913;-58
2023/05/21 14:46:04;;;;;;;;;;;;;;;;;;5046752;28;19978;-58
2023/05/21 14:48:30;;;;;;;;;;;;;;;;;;5044718;28;19937;-59
2023/05/21 14:50:56;;;;;;;;;;;;;;;;;;5039349;28;19924;-59
2023/05/21 14:53:22;;;;;;;;;;;;;;;;;;5043962;28;20261;-59
2023/05/21 14:55:48;;;;;;;;;;;;;;;;;;5045572;28;19956;-58
2023/05/21 14:58:14;;;;;;;;;;;;;;;;;;5044111;28;19960;-59
2023/05/21 15:00:40;;;;;;;;;;;;;;;;;;5048640;28;20014;-58
2023/05/21 15:03:06;;;;;;;;;;;;;;;;;;5045971;28;20323;-60
2023/05/21 15:05:32;;;;;;;;;;;;;;;;;;5044038;28;19940;-59
2023/05/21 15:07:58;;;;;;;;;;;;;;;;;;5045952;28;19912;-58
2023/05/21 15:10:24;;;;;;;;;;;;;;;;;;5042502;28;19966;-58
2023/05/21 15:12:50;;;;;;;;;;;;;;;;;;5041182;28;19941;-59
2023/05/21 15:15:16;;;;;;;;;;;;;;;;;;5039668;28;20130;-59
2023/05/21 15:17:42;;;;;;;;;;;;;;;;;;5043670;28;19936;-59
2023/05/21 15:20:08;;;;;;;;;;;;;;;;;;5045553;28;20050;-59
2023/05/21 15:22:34;;;;;;;;;;;;;;;;;;5043387;28;20356;-58
2023/05/21 15:25:00;;;;;;;;;;;;;;;;;;5046957;28;19913;-59
2023/05/21 15:27:27;;;;;;;;;;;;;;;;;;5041127;28;19936;-59
2023/05/21 15:29:54;;;;;;;;;;;;;;;;;;5041941;28;19971;-58
2023/05/21 15:32:20;;;;;;;;;;;;;;;;;;5044898;28;19919;-58
2023/05/21 15:34:46;;;;;;;;;;;;;;;;;;5045324;28;20359;-59
2023/05/21 15:37:15;;;;;;;;;;;;;;;;;;5041446;28;20054;-58
2023/05/21 15:39:41;;;;;;;;;;;;;;;;;;5047444;28;20017;-58
2023/05/21 15:42:08;;;;;;;;;;;;;;;;;;5045522;28;19913;-59
2023/05/21 15:44:34;;;;;;;;;;;;;;;;;;5043893;28;19915;-60
2023/05/21 15:47:00;;;;;;;;;;;;;;;;;;5045267;28;20019;-60
2023/05/21 15:49:26;;;;;;;;;;;;;;;;;;5040628;28;20035;-61
2023/05/21 15:51:52;;;;;;;;;;;;;;;;;;5044435;28;19909;-63
2023/05/21 15:54:18;;;;;;;;;;;;;;;;;;5033312;28;19928;-63
2023/05/21 15:56:44;;;;;;;;;;;;;;;;;;5043906;28;19947;-60
2023/05/21 15:59:10;;;;;;;;;;;;;;;;;;5041019;28;19939;-59
2023/05/21 16:01:36;;;;;;;;;;;;;;;;;;5041742;28;19912;-59
2023/05/21 16:04:02;;;;;;;;;;;;;;;;;;5042661;28;20140;-57
2023/05/21 16:06:28;;;;;;;;;;;;;;;;;;5042545;28;20371;-59
2023/05/21 16:08:54;;;;;;;;;;;;;;;;;;5046366;28;19943;-60
2023/05/21 16:11:21;;;;;;;;;;;;;;;;;;5042644;28;19938;-60
2023/05/21 16:13:47;;;;;;;;;;;;;;;;;;5044555;28;19916;-60
2023/05/21 16:16:13;;;;;;;;;;;;;;;;;;5044444;28;20009;-60
2023/05/21 16:18:39;;;;;;;;;;;;;;;;;;5043897;28;19919;-61
2023/05/21 16:21:05;;;;;;;;;;;;;;;;;;5043856;28;20368;-61
2023/05/21 16:23:32;;;;;;;;;;;;;;;;;;5044879;28;19955;-60
2023/05/21 16:25:59;;;;;;;;;;;;;;;;;;5043169;28;19909;-59
2023/05/21 16:28:25;;;;;;;;;;;;;;;;;;5043170;28;20083;-60
2023/05/21 16:30:51;;;;;;;;;;;;;;;;;;5043517;28;19917;-59
2023/05/21 16:33:17;;;;;;;;;;;;;;;;;;5043925;28;20534;-58
2023/05/21 16:35:43;;;;;;;;;;;;;;;;;;5044520;28;19919;-58
2023/05/21 16:38:09;;;;;;;;;;;;;;;;;;5042552;28;20343;-60
2023/05/21 16:40:35;;;;;;;;;;;;;;;;;;5043129;28;20343;-59